KRCM

Skyhaven Airport

Warrensburg, Missouri, USA
METAR KRCM 171615Z AUTO 29003KT 10SM CLR 14/05 A3045 RMK AO2
Observed Flight Rules
Oct-17 @ 16:15 UTC (9 hours ago) Visual Flight Rules
Wind Visibility Clouds
290° at 3 knots 10 miles
  • Clear skies
Temperatures Readings
Current 14°C / 57°F
Dewpoint 5°C / 41°F
Humidity 55%
Altimeter 30.45" Hg
Pressure 1031 hPa
Elevation 244
METAR KRCM 171615Z AUTO 29003KT 10SM CLR 14/05 A3045 RMK AO2
Observed Flight Rules
Oct-17 @ 16:15 UTC
(9 hours ago)
VFR
Wind Visibility
290° at 3 knots 10 miles
Clouds
  • Clear skies
Temperature Dewpoint
14°C / 57°F 5°C / 41°F
Humidity Altimeter Pressure
55% 30.45" Hg 1031 hPa